Time;durP1;ratioP1;P1;durP2;ratioP2;P2;SDS_P1;SDS_P2;PMS_P1;PMS_P2;Temp;Humidity;BMP_temperature;BMP_pressure;BME280_temperature;BME280_humidity;BME280_pressure;Samples;Min_cycle;Max_cycle;Signal;HPM_P1;HPM_P2
2021/03/13 00:01:44;;;;;;;6.68;2.03;;;;;;;;;;4999776;28;20043;-63
2021/03/13 00:04:09;;;;;;;19.83;3.33;;;;;;;;;;4999682;28;20151;-66
2021/03/13 00:06:35;;;;;;;15.20;2.25;;;;;;;;;;5000839;28;20052;-65
2021/03/13 00:09:03;;;;;;;14.13;1.90;;;;;;;;;;4997347;28;20130;-62
2021/03/13 00:11:29;;;;;;;6.47;1.67;;;;;;;;;;5002771;28;20038;-65
2021/03/13 00:13:55;;;;;;;8.82;1.85;;;;;;;;;;4998100;28;20101;-63
2021/03/13 00:16:22;;;;;;;10.60;1.33;;;;;;;;;;5001296;28;20045;-64
2021/03/13 00:18:49;;;;;;;10.82;1.50;;;;;;;;;;5000447;28;20030;-62
2021/03/13 00:21:15;;;;;;;17.05;1.70;;;;;;;;;;5001589;28;20034;-61
2021/03/13 00:23:41;;;;;;;11.98;1.55;;;;;;;;;;5001857;28;20038;-63
2021/03/13 00:26:07;;;;;;;7.40;1.45;;;;;;;;;;5004333;28;20035;-67
2021/03/13 00:28:33;;;;;;;12.02;1.80;;;;;;;;;;5005569;28;20053;-66
2021/03/13 00:30:59;;;;;;;11.60;1.50;;;;;;;;;;5022523;28;20110;-62
2021/03/13 00:33:28;;;;;;;16.45;1.48;;;;;;;;;;5017067;28;20034;-63
2021/03/13 00:35:54;;;;;;;5.78;1.42;;;;;;;;;;5021850;28;20050;-63
2021/03/13 00:38:21;;;;;;;18.15;1.80;;;;;;;;;;5017518;28;20040;-64
2021/03/13 00:40:48;;;;;;;8.82;1.85;;;;;;;;;;4983847;28;20054;-63
2021/03/13 00:43:14;;;;;;;9.02;1.48;;;;;;;;;;5007747;28;20421;-64
2021/03/13 00:45:41;;;;;;;10.15;1.20;;;;;;;;;;5015863;28;20038;-65
2021/03/13 00:48:09;;;;;;;6.65;1.30;;;;;;;;;;5022351;28;20045;-66
2021/03/13 00:50:36;;;;;;;8.10;1.35;;;;;;;;;;5002613;28;20046;-68
2021/03/13 00:53:03;;;;;;;13.70;1.83;;;;;;;;;;5003209;28;20057;-66
2021/03/13 00:55:31;;;;;;;7.93;1.13;;;;;;;;;;5011755;28;20344;-66
2021/03/13 00:57:57;;;;;;;6.10;1.10;;;;;;;;;;5004237;28;20787;-66
2021/03/13 01:00:24;;;;;;;12.55;1.52;;;;;;;;;;4998510;28;20046;-66
2021/03/13 01:02:50;;;;;;;10.55;1.50;;;;;;;;;;5000954;28;20049;-67
2021/03/13 01:05:16;;;;;;;6.82;1.17;;;;;;;;;;4998965;28;20056;-68
2021/03/13 01:07:44;;;;;;;6.20;1.42;;;;;;;;;;5003110;28;20046;-64
2021/03/13 01:10:12;;;;;;;8.93;1.60;;;;;;;;;;4998181;28;20042;-65
2021/03/13 01:12:38;;;;;;;5.18;1.10;;;;;;;;;;5002516;28;20046;-65
2021/03/13 01:15:05;;;;;;;9.02;1.75;;;;;;;;;;4999992;28;20057;-62
2021/03/13 01:17:33;;;;;;;8.80;1.75;;;;;;;;;;5002244;28;20049;-61
2021/03/13 01:19:58;;;;;;;10.15;1.50;;;;;;;;;;5000568;28;20038;-65
2021/03/13 01:22:24;;;;;;;6.88;1.42;;;;;;;;;;4991447;28;20056;-62
2021/03/13 01:24:51;;;;;;;7.32;1.45;;;;;;;;;;4985397;28;20042;-64
2021/03/13 01:27:20;;;;;;;6.65;1.20;;;;;;;;;;5018026;28;20038;-62
2021/03/13 01:29:45;;;;;;;6.78;1.50;;;;;;;;;;5024196;28;20053;-62
2021/03/13 01:32:11;;;;;;;10.18;1.58;;;;;;;;;;5005219;28;20050;-62
2021/03/13 01:34:38;;;;;;;6.63;1.23;;;;;;;;;;5004279;28;20124;-64
2021/03/13 01:37:04;;;;;;;7.20;1.27;;;;;;;;;;5003374;28;20034;-63
2021/03/13 01:39:30;;;;;;;7.82;1.40;;;;;;;;;;5003224;28;20042;-62
2021/03/13 01:41:57;;;;;;;5.80;1.35;;;;;;;;;;5000438;28;20035;-61
2021/03/13 01:44:23;;;;;;;6.53;1.20;;;;;;;;;;5005330;28;20117;-60
2021/03/13 01:46:50;;;;;;;5.32;1.23;;;;;;;;;;5008336;28;20038;-64
2021/03/13 01:49:18;;;;;;;11.48;1.75;;;;;;;;;;5025415;28;20041;-65
2021/03/13 01:51:45;;;;;;;6.93;1.30;;;;;;;;;;5040339;28;20052;-63
2021/03/13 01:54:11;;;;;;;5.43;1.27;;;;;;;;;;5027829;28;20038;-67
2021/03/13 01:56:37;;;;;;;9.88;1.50;;;;;;;;;;5021778;28;20076;-65
2021/03/13 01:59:04;;;;;;;4.15;1.10;;;;;;;;;;5007556;28;20056;-63
2021/03/13 02:01:30;;;;;;;2.03;0.63;;;;;;;;;;5023337;28;20050;-64
2021/03/13 02:03:57;;;;;;;6.55;1.40;;;;;;;;;;5005734;28;20049;-65
2021/03/13 02:06:23;;;;;;;6.32;1.02;;;;;;;;;;5006539;28;20059;-65
2021/03/13 02:08:52;;;;;;;5.70;1.00;;;;;;;;;;5005050;28;20065;-65
2021/03/13 02:11:22;;;;;;;6.88;1.27;;;;;;;;;;5007189;28;20045;-65
2021/03/13 02:13:51;;;;;;;4.60;1.10;;;;;;;;;;5000950;28;20046;-65
2021/03/13 02:16:23;;;;;;;5.75;1.13;;;;;;;;;;4987602;28;20061;-68
2021/03/13 02:18:57;;;;;;;9.60;1.52;;;;;;;;;;5009953;28;20041;-63
2021/03/13 02:21:25;;;;;;;11.60;1.75;;;;;;;;;;5026308;28;20049;-67
2021/03/13 02:24:06;;;;;;;3.30;1.00;;;;;;;;;;5008235;28;20052;-64
2021/03/13 02:26:41;;;;;;;5.07;1.30;;;;;;;;;;5002859;28;20038;-67
2021/03/13 02:29:13;;;;;;;3.47;1.00;;;;;;;;;;5010040;28;20035;-65
2021/03/13 02:31:41;;;;;;;9.20;1.30;;;;;;;;;;5025450;28;20034;-67
2021/03/13 02:34:07;;;;;;;6.13;1.40;;;;;;;;;;5030942;28;20046;-66
2021/03/13 02:36:34;;;;;;;5.30;1.23;;;;;;;;;;5008110;28;20078;-65
2021/03/13 02:39:02;;;;;;;4.03;1.00;;;;;;;;;;5021312;28;20061;-68
2021/03/13 02:41:31;;;;;;;6.35;1.25;;;;;;;;;;5026197;28;20065;-67
2021/03/13 02:44:00;;;;;;;8.38;1.30;;;;;;;;;;5018023;28;20093;-63
2021/03/13 02:46:26;;;;;;;;;;;;;;;;;;5029224;28;20103;-64
2021/03/13 02:48:54;;;;;;;3.10;0.95;;;;;;;;;;5018181;28;19929;-66
2021/03/13 02:51:21;;;;;;;7.47;1.33;;;;;;;;;;5002299;28;20038;-61
2021/03/13 02:53:47;;;;;;;2.88;1.08;;;;;;;;;;5003450;28;20053;-61
2021/03/13 02:56:15;;;;;;;3.08;1.00;;;;;;;;;;5022945;28;20037;-61
2021/03/13 02:58:41;;;;;;;2.22;1.02;;;;;;;;;;5023531;28;20062;-65
2021/03/13 03:01:08;;;;;;;2.78;1.00;;;;;;;;;;5020690;28;20030;-65
2021/03/13 03:03:36;;;;;;;2.88;0.93;;;;;;;;;;5022130;28;20069;-63
2021/03/13 03:06:03;;;;;;;3.38;1.08;;;;;;;;;;5018910;28;20076;-66
2021/03/13 03:08:29;;;;;;;5.40;1.20;;;;;;;;;;5023278;28;20042;-64
2021/03/13 03:10:56;;;;;;;7.00;1.35;;;;;;;;;;5001084;28;20070;-61
2021/03/13 03:13:23;;;;;;;6.13;1.30;;;;;;;;;;5000600;28;20038;-62
2021/03/13 03:15:50;;;;;;;8.75;1.58;;;;;;;;;;4997233;28;20062;-60
2021/03/13 03:18:25;;;;;;;5.65;1.23;;;;;;;;;;5005198;28;20044;-62
2021/03/13 03:20:51;;;;;;;3.53;0.98;;;;;;;;;;5012292;28;20034;-60
2021/03/13 03:23:18;;;;;;;1.55;1.02;;;;;;;;;;5025060;28;20038;-63
2021/03/13 03:25:44;;;;;;;4.88;1.15;;;;;;;;;;5011952;28;20057;-59
2021/03/13 03:28:13;;;;;;;4.78;1.50;;;;;;;;;;5003932;28;20038;-61
2021/03/13 03:30:39;;;;;;;2.22;0.80;;;;;;;;;;5000608;28;20145;-61
2021/03/13 03:33:05;;;;;;;4.18;1.27;;;;;;;;;;5002704;28;20042;-62
2021/03/13 03:35:31;;;;;;;7.70;1.55;;;;;;;;;;5000758;28;20041;-60
2021/03/13 03:37:59;;;;;;;4.63;1.42;;;;;;;;;;5003605;28;20034;-64
2021/03/13 03:40:26;;;;;;;3.90;0.98;;;;;;;;;;5000172;28;20030;-60
2021/03/13 03:42:54;;;;;;;3.92;1.08;;;;;;;;;;4991490;28;20042;-63
2021/03/13 03:45:22;;;;;;;4.25;0.90;;;;;;;;;;4983391;28;20046;-60
2021/03/13 03:47:49;;;;;;;6.20;1.13;;;;;;;;;;4998998;28;20053;-62
2021/03/13 03:50:16;;;;;;;4.25;1.10;;;;;;;;;;5006025;28;20054;-62
2021/03/13 03:52:44;;;;;;;2.97;0.93;;;;;;;;;;5017740;28;20037;-63
2021/03/13 03:55:10;;;;;;;9.67;1.33;;;;;;;;;;5025944;28;20118;-61
2021/03/13 03:57:39;;;;;;;3.47;0.90;;;;;;;;;;5025687;28;20275;-65
2021/03/13 04:00:06;;;;;;;8.07;1.30;;;;;;;;;;5004426;28;20042;-66
2021/03/13 04:02:34;;;;;;;1.60;0.70;;;;;;;;;;5002752;28;20047;-64
2021/03/13 04:05:01;;;;;;;3.45;0.85;;;;;;;;;;5005885;28;20037;-62
2021/03/13 04:07:28;;;;;;;3.80;1.27;;;;;;;;;;5003412;28;20033;-63
2021/03/13 04:09:54;;;;;;;3.55;1.08;;;;;;;;;;5005153;28;20030;-65
2021/03/13 04:12:20;;;;;;;7.65;1.20;;;;;;;;;;5008507;28;20139;-61
2021/03/13 04:14:47;;;;;;;5.45;1.30;;;;;;;;;;5026559;28;20033;-65
2021/03/13 04:17:17;;;;;;;4.03;1.30;;;;;;;;;;5020037;28;20057;-64
2021/03/13 04:19:43;;;;;;;4.43;1.15;;;;;;;;;;5005652;28;20041;-65
2021/03/13 04:22:09;;;;;;;2.90;0.90;;;;;;;;;;4993254;28;20045;-63
2021/03/13 04:24:37;;;;;;;3.60;0.63;;;;;;;;;;5007808;28;20050;-62
2021/03/13 04:27:04;;;;;;;7.28;1.55;;;;;;;;;;5006179;28;20057;-61
2021/03/13 04:29:30;;;;;;;1.45;0.57;;;;;;;;;;5004488;28;20046;-61
2021/03/13 04:31:58;;;;;;;3.25;0.85;;;;;;;;;;5007595;28;20034;-62
2021/03/13 04:34:24;;;;;;;2.83;0.60;;;;;;;;;;5018159;28;20097;-62
2021/03/13 04:36:51;;;;;;;2.85;1.00;;;;;;;;;;5026579;28;20499;-60
2021/03/13 04:39:17;;;;;;;4.43;0.98;;;;;;;;;;5009025;28;20034;-59
2021/03/13 04:41:43;;;;;;;3.72;0.85;;;;;;;;;;5009201;28;20041;-60
2021/03/13 04:44:10;;;;;;;3.88;0.90;;;;;;;;;;5008786;28;20045;-59
2021/03/13 04:46:36;;;;;;;2.17;1.00;;;;;;;;;;5006118;28;20042;-59
2021/03/13 04:49:05;;;;;;;2.58;0.80;;;;;;;;;;5001100;28;20035;-60
2021/03/13 04:51:31;;;;;;;1.98;0.90;;;;;;;;;;4983272;28;20049;-59
2021/03/13 04:53:57;;;;;;;1.80;0.70;;;;;;;;;;4968359;28;20046;-59
2021/03/13 04:56:26;;;;;;;5.32;1.08;;;;;;;;;;4984815;28;20050;-61
2021/03/13 04:58:53;;;;;;;;;;;;;;;;;;4996118;28;20132;-63
2021/03/13 05:01:19;;;;;;;4.97;0.95;;;;;;;;;;4990263;28;19929;-62
2021/03/13 05:03:45;;;;;;;2.00;0.68;;;;;;;;;;4980164;28;20061;-60
2021/03/13 05:06:12;;;;;;;7.40;1.25;;;;;;;;;;4965569;28;20053;-63
2021/03/13 05:08:40;;;;;;;3.10;0.90;;;;;;;;;;4965241;28;20065;-59
2021/03/13 05:11:06;;;;;;;5.53;0.75;;;;;;;;;;4961916;28;20050;-59
2021/03/13 05:13:32;;;;;;;6.97;1.15;;;;;;;;;;4966665;28;20106;-63
2021/03/13 05:15:58;;;;;;;3.85;0.88;;;;;;;;;;4976510;28;20054;-65
2021/03/13 05:18:24;;;;;;;4.38;0.68;;;;;;;;;;4985426;28;20046;-66
2021/03/13 05:20:50;;;;;;;2.60;0.47;;;;;;;;;;4981755;28;20046;-64
2021/03/13 05:23:17;;;;;;;5.68;0.95;;;;;;;;;;4981992;28;20070;-66
2021/03/13 05:25:44;;;;;;;2.05;0.68;;;;;;;;;;4979848;28;20049;-66
2021/03/13 05:28:10;;;;;;;4.53;1.13;;;;;;;;;;4985009;28;20075;-64
2021/03/13 05:30:36;;;;;;;6.63;0.98;;;;;;;;;;4973206;28;20382;-64
2021/03/13 05:33:02;;;;;;;2.88;0.60;;;;;;;;;;4966001;28;20046;-65
2021/03/13 05:35:28;;;;;;;5.72;0.93;;;;;;;;;;4963062;28;20103;-62
2021/03/13 05:37:55;;;;;;;4.18;0.90;;;;;;;;;;4964763;28;20030;-65
2021/03/13 05:40:22;;;;;;;2.85;0.90;;;;;;;;;;4965694;28;20037;-62
2021/03/13 05:42:48;;;;;;;4.03;0.90;;;;;;;;;;4976301;28;20058;-66
2021/03/13 05:45:15;;;;;;;6.38;1.50;;;;;;;;;;4984340;28;20038;-62
2021/03/13 05:47:41;;;;;;;1.63;0.57;;;;;;;;;;4965769;28;20047;-64
2021/03/13 05:50:08;;;;;;;2.38;0.60;;;;;;;;;;4964362;28;20095;-64
2021/03/13 05:52:35;;;;;;;3.80;0.80;;;;;;;;;;4977671;28;20027;-64
2021/03/13 05:55:01;;;;;;;4.53;0.90;;;;;;;;;;4985129;28;20050;-66
2021/03/13 05:57:29;;;;;;;4.35;0.45;;;;;;;;;;4981979;28;20100;-63
2021/03/13 05:59:56;;;;;;;2.72;0.60;;;;;;;;;;4985216;28;20050;-62
2021/03/13 06:02:22;;;;;;;11.43;1.10;;;;;;;;;;4981770;28;20128;-68
2021/03/13 06:04:49;;;;;;;7.13;0.82;;;;;;;;;;4985840;28;20050;-67
2021/03/13 06:07:19;;;;;;;8.73;0.93;;;;;;;;;;4984965;28;20050;-65
2021/03/13 06:09:45;;;;;;;1.88;0.55;;;;;;;;;;4988182;28;20053;-67
2021/03/13 06:12:12;;;;;;;0.88;0.43;;;;;;;;;;4986645;28;20030;-65
2021/03/13 06:14:39;;;;;;;1.35;0.32;;;;;;;;;;4987286;28;20041;-64
2021/03/13 06:17:06;;;;;;;1.42;0.40;;;;;;;;;;4986798;28;20034;-65
2021/03/13 06:19:49;;;;;;;3.30;0.40;;;;;;;;;;4989309;28;20116;-59
2021/03/13 06:22:30;;;;;;;1.80;0.47;;;;;;;;;;4985527;28;20042;-61
2021/03/13 06:25:15;;;;;;;1.17;0.30;;;;;;;;;;4986817;28;20034;-63
2021/03/13 06:27:41;;;;;;;3.92;0.50;;;;;;;;;;4984931;28;20100;-61
2021/03/13 06:30:09;;;;;;;2.35;0.40;;;;;;;;;;4987310;28;20042;-61
2021/03/13 06:32:36;;;;;;;2.80;0.50;;;;;;;;;;4987569;28;20049;-61
2021/03/13 06:35:17;;;;;;;4.07;0.88;;;;;;;;;;5005999;28;20180;-62
2021/03/13 06:37:46;;;;;;;2.60;0.30;;;;;;;;;;4999939;28;20056;-62
2021/03/13 06:40:24;;;;;;;2.55;0.35;;;;;;;;;;4986587;28;20116;-63
2021/03/13 06:42:50;;;;;;;1.17;0.40;;;;;;;;;;4992726;28;20037;-61
2021/03/13 06:45:19;;;;;;;2.15;0.40;;;;;;;;;;4986373;28;20049;-62
2021/03/13 06:47:45;;;;;;;3.50;0.43;;;;;;;;;;4983212;28;20034;-62
2021/03/13 06:50:13;;;;;;;3.20;0.35;;;;;;;;;;4985666;28;20050;-61
2021/03/13 06:52:39;;;;;;;0.50;0.20;;;;;;;;;;4988301;28;20112;-61
2021/03/13 06:55:06;;;;;;;1.95;0.73;;;;;;;;;;4984078;28;20428;-61
2021/03/13 06:57:33;;;;;;;5.03;0.88;;;;;;;;;;4986583;28;20045;-67
2021/03/13 07:00:02;;;;;;;6.25;0.60;;;;;;;;;;4980390;28;20038;-64
2021/03/13 07:02:29;;;;;;;5.60;0.90;;;;;;;;;;4968105;28;20054;-66
2021/03/13 07:05:06;;;;;;;1.05;0.32;;;;;;;;;;4977736;28;20056;-65
2021/03/13 07:07:33;;;;;;;3.45;0.68;;;;;;;;;;4987697;28;20082;-65
2021/03/13 07:10:00;;;;;;;3.95;0.70;;;;;;;;;;4971361;28;20071;-64
2021/03/13 07:12:27;;;;;;;4.18;0.60;;;;;;;;;;4968646;28;20071;-67
2021/03/13 07:14:54;;;;;;;6.00;0.68;;;;;;;;;;4965979;28;20057;-62
2021/03/13 07:17:21;;;;;;;4.28;0.80;;;;;;;;;;4969093;28;20054;-66
2021/03/13 07:19:48;;;;;;;5.43;0.85;;;;;;;;;;4970842;28;20030;-65
2021/03/13 07:22:14;;;;;;;5.07;0.50;;;;;;;;;;5004692;28;20062;-63
2021/03/13 07:24:41;;;;;;;5.53;0.57;;;;;;;;;;4983218;28;20078;-63
2021/03/13 07:27:10;;;;;;;5.47;0.82;;;;;;;;;;4987022;28;20132;-61
2021/03/13 07:29:35;;;;;;;;;;;;;;;;;;4983430;28;20050;-64
2021/03/13 07:32:03;;;;;;;2.78;0.50;;;;;;;;;;5001064;28;19980;-65
2021/03/13 07:34:30;;;;;;;2.63;0.50;;;;;;;;;;4984550;28;20053;-64
2021/03/13 07:36:59;;;;;;;6.28;0.93;;;;;;;;;;5004408;28;20054;-66
2021/03/13 07:39:28;;;;;;;8.57;0.88;;;;;;;;;;4986074;28;20046;-63
2021/03/13 07:41:57;;;;;;;8.38;0.73;;;;;;;;;;4988235;28;20050;-64
2021/03/13 07:44:23;;;;;;;6.65;0.75;;;;;;;;;;4987649;28;20077;-61
2021/03/13 07:46:50;;;;;;;3.10;0.68;;;;;;;;;;4984595;28;20124;-62
2021/03/13 07:49:16;;;;;;;4.55;0.95;;;;;;;;;;4989456;28;20046;-62
2021/03/13 07:51:44;;;;;;;4.53;0.60;;;;;;;;;;4971106;28;20057;-63
2021/03/13 07:54:11;;;;;;;6.30;0.90;;;;;;;;;;4967744;28;20034;-66
2021/03/13 07:56:39;;;;;;;13.00;1.30;;;;;;;;;;4964532;28;20061;-67
2021/03/13 07:59:09;;;;;;;11.25;1.65;;;;;;;;;;4967312;28;20034;-66
2021/03/13 08:01:51;;;;;;;5.95;1.17;;;;;;;;;;4971984;28;20034;-66
2021/03/13 08:04:36;;;;;;;6.90;0.60;;;;;;;;;;4986367;28;20416;-66
2021/03/13 08:07:04;;;;;;;5.97;1.13;;;;;;;;;;4971748;28;20046;-68
2021/03/13 08:09:31;;;;;;;12.77;1.52;;;;;;;;;;4982200;28;20034;-66
2021/03/13 08:11:58;;;;;;;8.55;0.80;;;;;;;;;;4981827;28;20056;-65
2021/03/13 08:14:31;;;;;;;10.43;1.33;;;;;;;;;;4987159;28;20046;-65
2021/03/13 08:17:05;;;;;;;3.10;0.73;;;;;;;;;;4981267;28;20041;-66
2021/03/13 08:19:34;;;;;;;7.28;0.77;;;;;;;;;;4986471;28;20045;-67
2021/03/13 08:22:13;;;;;;;7.35;1.25;;;;;;;;;;4999963;28;20049;-66
2021/03/13 08:24:41;;;;;;;4.63;0.82;;;;;;;;;;4985697;28;20046;-67
2021/03/13 08:27:08;;;;;;;16.90;1.75;;;;;;;;;;4979428;28;20054;-66
2021/03/13 08:29:55;;;;;;;6.95;1.05;;;;;;;;;;4972106;28;20472;-62
2021/03/13 08:32:40;;;;;;;7.88;1.17;;;;;;;;;;4986771;28;20043;-64
2021/03/13 08:35:07;;;;;;;8.23;0.93;;;;;;;;;;4974229;28;20034;-63
2021/03/13 08:37:46;;;;;;;7.90;1.17;;;;;;;;;;4976030;28;20039;-64
2021/03/13 08:40:22;;;;;;;5.20;1.00;;;;;;;;;;4966947;28;20046;-66
2021/03/13 08:42:48;;;;;;;5.57;1.05;;;;;;;;;;4971332;28;20104;-66
2021/03/13 08:45:16;;;;;;;9.68;1.48;;;;;;;;;;4987616;28;20038;-66
2021/03/13 08:47:43;;;;;;;10.13;1.50;;;;;;;;;;4963707;28;20081;-63
2021/03/13 08:50:51;;;;;;;11.10;1.40;;;;;;;;;;4966750;28;20046;-67
2021/03/13 08:53:35;;;;;;;8.77;2.07;;;;;;;;;;4966570;28;20042;-65
2021/03/13 08:56:03;;;;;;;10.45;2.03;;;;;;;;;;4984811;28;20066;-64
2021/03/13 08:58:40;;;;;;;12.85;1.77;;;;;;;;;;4976685;28;20349;-66
2021/03/13 09:01:16;;;;;;;10.68;0.90;;;;;;;;;;4965538;28;20030;-63
2021/03/13 09:03:49;;;;;;;13.38;1.20;;;;;;;;;;4967258;28;20034;-66
2021/03/13 09:06:15;;;;;;;15.77;1.58;;;;;;;;;;4965502;28;20038;-64
2021/03/13 09:08:43;;;;;;;12.07;1.27;;;;;;;;;;4963799;28;20050;-66
2021/03/13 09:11:13;;;;;;;11.90;1.55;;;;;;;;;;4966585;28;20054;-63
2021/03/13 09:13:39;;;;;;;8.13;1.08;;;;;;;;;;4965038;28;20074;-61
2021/03/13 09:16:15;;;;;;;11.43;1.10;;;;;;;;;;4969132;28;20057;-61
2021/03/13 09:18:50;;;;;;;21.55;1.77;;;;;;;;;;4965516;28;20035;-65
2021/03/13 09:21:31;;;;;;;13.45;1.75;;;;;;;;;;4966525;28;20126;-63
2021/03/13 09:23:57;;;;;;;11.85;1.17;;;;;;;;;;4965729;28;20035;-66
2021/03/13 09:26:24;;;;;;;7.82;1.10;;;;;;;;;;4990664;28;20054;-67
2021/03/13 09:28:51;;;;;;;12.20;1.40;;;;;;;;;;5021050;28;20044;-66
2021/03/13 09:31:17;;;;;;;8.50;0.93;;;;;;;;;;4985088;28;20042;-68
2021/03/13 09:33:43;;;;;;;22.67;2.50;;;;;;;;;;4984976;28;20635;-67
2021/03/13 09:36:10;;;;;;;13.30;1.60;;;;;;;;;;5014764;28;20053;-65
2021/03/13 09:38:37;;;;;;;16.70;2.08;;;;;;;;;;5024891;28;20065;-63
2021/03/13 09:41:03;;;;;;;8.15;1.98;;;;;;;;;;5007965;28;20048;-66
2021/03/13 09:43:39;;;;;;;19.10;1.65;;;;;;;;;;4998552;28;20046;-67
2021/03/13 09:46:16;;;;;;;11.60;1.50;;;;;;;;;;4999224;28;20034;-65
2021/03/13 09:48:49;;;;;;;10.80;1.50;;;;;;;;;;4988073;28;20053;-65
2021/03/13 09:51:15;;;;;;;12.10;1.42;;;;;;;;;;4981252;28;20049;-66
2021/03/13 09:53:43;;;;;;;20.42;2.58;;;;;;;;;;4967462;28;20056;-61
2021/03/13 09:56:10;;;;;;;11.90;2.03;;;;;;;;;;4979781;28;20061;-63
2021/03/13 09:58:36;;;;;;;13.30;2.25;;;;;;;;;;4966908;28;20106;-66
2021/03/13 10:01:03;;;;;;;5.18;0.55;;;;;;;;;;4971846;28;20061;-64
2021/03/13 10:03:30;;;;;;;9.82;1.23;;;;;;;;;;4988260;28;20066;-66
2021/03/13 10:05:58;;;;;;;9.00;1.35;;;;;;;;;;4995780;28;20045;-62
2021/03/13 10:08:32;;;;;;;14.40;1.60;;;;;;;;;;4968009;28;20038;-63
2021/03/13 10:11:00;;;;;;;10.27;1.38;;;;;;;;;;4985448;28;20080;-65
2021/03/13 10:13:29;;;;;;;6.18;1.17;;;;;;;;;;4990294;28;20045;-65
2021/03/13 10:15:55;;;;;;;;;;;;;;;;;;4979285;28;20046;-62
2021/03/13 10:18:28;;;;;;;17.65;1.73;;;;;;;;;;4986767;28;19932;-65
2021/03/13 10:20:57;;;;;;;13.88;1.50;;;;;;;;;;4988410;28;20038;-67
2021/03/13 10:23:24;;;;;;;19.08;2.25;;;;;;;;;;5030062;28;20041;-64
2021/03/13 10:25:57;;;;;;;14.05;1.50;;;;;;;;;;5026230;28;20045;-62
2021/03/13 10:28:27;;;;;;;15.18;1.65;;;;;;;;;;5006466;28;20054;-64
2021/03/13 10:31:03;;;;;;;20.52;2.08;;;;;;;;;;5007039;28;20038;-66
2021/03/13 10:33:31;;;;;;;13.73;2.22;;;;;;;;;;5022368;28;20052;-61
2021/03/13 10:35:57;;;;;;;19.15;2.13;;;;;;;;;;5026523;28;20049;-64
2021/03/13 10:38:25;;;;;;;10.65;1.65;;;;;;;;;;5008541;28;20358;-67
2021/03/13 10:40:52;;;;;;;12.85;2.13;;;;;;;;;;5007200;28;20033;-64
2021/03/13 10:43:21;;;;;;;12.52;1.95;;;;;;;;;;4993022;28;20049;-64
2021/03/13 10:46:01;;;;;;;13.82;1.70;;;;;;;;;;5000380;28;20050;-68
2021/03/13 10:48:57;;;;;;;21.60;1.73;;;;;;;;;;5015406;28;20050;-62
2021/03/13 10:51:25;;;;;;;16.27;2.78;;;;;;;;;;5024734;28;20033;-68
2021/03/13 10:53:52;;;;;;;23.27;2.40;;;;;;;;;;5023669;28;20080;-65
2021/03/13 10:56:18;;;;;;;18.20;2.22;;;;;;;;;;5016227;28;20096;-64
2021/03/13 10:58:54;;;;;;;14.48;1.80;;;;;;;;;;4992634;28;20070;-63
2021/03/13 11:01:24;;;;;;;18.10;2.22;;;;;;;;;;4964894;28;20089;-66
2021/03/13 11:03:51;;;;;;;19.52;2.15;;;;;;;;;;4973302;28;20047;-66
2021/03/13 11:06:24;;;;;;;13.52;2.10;;;;;;;;;;4984519;28;20050;-66
2021/03/13 11:08:52;;;;;;;18.70;2.03;;;;;;;;;;4978454;28;20070;-62
2021/03/13 11:11:20;;;;;;;14.68;2.00;;;;;;;;;;4969573;28;20038;-63
2021/03/13 11:13:46;;;;;;;24.02;1.67;;;;;;;;;;4967481;28;20132;-67
2021/03/13 11:16:12;;;;;;;15.80;1.73;;;;;;;;;;4968415;28;20031;-67
2021/03/13 11:18:39;;;;;;;25.17;2.20;;;;;;;;;;4968282;28;20046;-65
2021/03/13 11:21:08;;;;;;;21.13;2.33;;;;;;;;;;4978574;28;20042;-65
2021/03/13 11:23:34;;;;;;;9.25;1.42;;;;;;;;;;5000353;28;20042;-67
2021/03/13 11:26:04;;;;;;;15.68;1.65;;;;;;;;;;4973397;28;20057;-65
2021/03/13 11:28:31;;;;;;;13.95;1.65;;;;;;;;;;5005258;28;20053;-67
2021/03/13 11:30:57;;;;;;;16.98;2.20;;;;;;;;;;4982810;28;20050;-66
2021/03/13 11:33:23;;;;;;;13.38;1.75;;;;;;;;;;4986834;28;20042;-66
2021/03/13 11:35:50;;;;;;;13.63;2.00;;;;;;;;;;4977177;28;20113;-64
2021/03/13 11:38:16;;;;;;;22.55;1.90;;;;;;;;;;4976498;28;20057;-65
2021/03/13 11:40:49;;;;;;;27.23;2.90;;;;;;;;;;4957148;28;20046;-65
2021/03/13 11:43:16;;;;;;;11.43;1.35;;;;;;;;;;4979084;28;20039;-67
2021/03/13 11:45:43;;;;;;;14.05;1.25;;;;;;;;;;4972336;28;20050;-65
2021/03/13 11:48:16;;;;;;;11.80;1.52;;;;;;;;;;4966723;28;20026;-67
2021/03/13 11:50:43;;;;;;;14.55;2.08;;;;;;;;;;4974329;28;20066;-67
2021/03/13 11:53:09;;;;;;;14.40;1.63;;;;;;;;;;4976249;28;20058;-66
2021/03/13 11:55:37;;;;;;;11.98;2.60;;;;;;;;;;4974491;28;20038;-67
2021/03/13 11:58:03;;;;;;;13.80;2.38;;;;;;;;;;4967625;28;20046;-67
2021/03/13 12:00:32;;;;;;;11.85;1.77;;;;;;;;;;4986143;28;20060;-65
2021/03/13 12:02:59;;;;;;;14.27;2.25;;;;;;;;;;5004636;28;20070;-66
2021/03/13 12:05:25;;;;;;;8.65;1.60;;;;;;;;;;4999128;28;20070;-65
2021/03/13 12:07:53;;;;;;;20.80;2.63;;;;;;;;;;5006859;28;20049;-65
2021/03/13 12:10:20;;;;;;;9.80;1.60;;;;;;;;;;5002611;28;20038;-68
2021/03/13 12:12:48;;;;;;;10.07;1.30;;;;;;;;;;4995841;28;20065;-65
2021/03/13 12:15:15;;;;;;;13.75;1.30;;;;;;;;;;5023230;28;20041;-63
2021/03/13 12:17:42;;;;;;;12.20;1.52;;;;;;;;;;5003420;28;20038;-66
2021/03/13 12:20:11;;;;;;;5.57;0.90;;;;;;;;;;5016656;28;20030;-66
2021/03/13 12:22:37;;;;;;;6.85;0.93;;;;;;;;;;5002533;28;20038;-66
2021/03/13 12:25:06;;;;;;;6.15;1.27;;;;;;;;;;5005361;28;20038;-65
2021/03/13 12:27:39;;;;;;;9.60;1.30;;;;;;;;;;4999447;28;20042;-67
2021/03/13 12:30:06;;;;;;;7.45;0.80;;;;;;;;;;4983194;28;20041;-64
2021/03/13 12:32:32;;;;;;;7.50;1.02;;;;;;;;;;4997450;28;20041;-69
2021/03/13 12:35:00;;;;;;;11.18;1.50;;;;;;;;;;5007202;28;20038;-63
2021/03/13 12:37:27;;;;;;;5.88;0.77;;;;;;;;;;4991576;28;20059;-66
2021/03/13 12:39:54;;;;;;;8.57;1.10;;;;;;;;;;5005912;28;20156;-63
2021/03/13 12:42:20;;;;;;;4.70;0.88;;;;;;;;;;5001339;28;20045;-67
2021/03/13 12:44:46;;;;;;;5.93;1.27;;;;;;;;;;5007173;28;20038;-66
2021/03/13 12:47:13;;;;;;;4.82;0.98;;;;;;;;;;4998329;28;20038;-68
2021/03/13 12:49:42;;;;;;;11.40;1.17;;;;;;;;;;4995380;28;20044;-65
2021/03/13 12:52:09;;;;;;;6.85;1.08;;;;;;;;;;5018874;28;20174;-65
2021/03/13 12:54:35;;;;;;;5.18;0.93;;;;;;;;;;4995625;28;20045;-67
2021/03/13 12:57:03;;;;;;;4.07;1.10;;;;;;;;;;5013140;28;20070;-66
2021/03/13 12:59:30;;;;;;;6.57;0.90;;;;;;;;;;5022444;28;20052;-63
2021/03/13 13:02:02;;;;;;;1.17;0.43;;;;;;;;;;5025672;28;20041;-67
2021/03/13 13:04:30;;;;;;;4.78;0.73;;;;;;;;;;4999851;28;20053;-66
2021/03/13 13:06:58;;;;;;;3.50;0.50;;;;;;;;;;4963483;28;20067;-65
2021/03/13 13:09:25;;;;;;;3.20;0.60;;;;;;;;;;4978493;28;20323;-61
2021/03/13 13:11:50;;;;;;;3.05;0.50;;;;;;;;;;4984961;28;20046;-63
2021/03/13 13:14:25;;;;;;;5.90;1.05;;;;;;;;;;4968489;28;20152;-65
2021/03/13 13:16:52;;;;;;;6.57;1.10;;;;;;;;;;4969405;28;20051;-65
2021/03/13 13:19:18;;;;;;;6.05;0.75;;;;;;;;;;4965058;28;20038;-69
2021/03/13 13:21:44;;;;;;;3.53;0.70;;;;;;;;;;4972050;28;20038;-67
2021/03/13 13:24:11;;;;;;;2.95;0.50;;;;;;;;;;4965458;28;20059;-68
2021/03/13 13:26:38;;;;;;;9.60;0.70;;;;;;;;;;4984299;28;20049;-65
2021/03/13 13:29:09;;;;;;;5.25;0.65;;;;;;;;;;4983831;28;20090;-66
2021/03/13 13:31:35;;;;;;;6.13;0.70;;;;;;;;;;4988985;28;20042;-67
2021/03/13 13:34:01;;;;;;;5.30;0.85;;;;;;;;;;4982907;28;20038;-65
2021/03/13 13:36:27;;;;;;;6.70;1.30;;;;;;;;;;4968683;28;20105;-68
2021/03/13 13:38:56;;;;;;;9.63;0.93;;;;;;;;;;4968028;28;20054;-66
2021/03/13 13:41:22;;;;;;;13.70;1.60;;;;;;;;;;4988498;28;20038;-67
2021/03/13 13:43:49;;;;;;;6.70;1.55;;;;;;;;;;4985699;28;20053;-66
2021/03/13 13:46:15;;;;;;;9.00;1.10;;;;;;;;;;4966481;28;20046;-62
2021/03/13 13:48:42;;;;;;;6.45;1.08;;;;;;;;;;4967878;28;20147;-61
2021/03/13 13:51:09;;;;;;;7.35;1.08;;;;;;;;;;4965388;28;20504;-65
2021/03/13 13:53:35;;;;;;;9.95;1.13;;;;;;;;;;4968533;28;20043;-62
2021/03/13 13:56:02;;;;;;;7.55;1.00;;;;;;;;;;4978369;28;20030;-65
2021/03/13 13:58:29;;;;;;;9.10;1.40;;;;;;;;;;4977319;28;20070;-67
2021/03/13 14:00:56;;;;;;;4.45;0.77;;;;;;;;;;4988718;28;20058;-65
2021/03/13 14:03:22;;;;;;;7.32;1.23;;;;;;;;;;4968504;28;20069;-65
2021/03/13 14:05:50;;;;;;;7.00;0.90;;;;;;;;;;4973769;28;20030;-62
2021/03/13 14:08:17;;;;;;;12.70;0.98;;;;;;;;;;4987532;28;20030;-67
2021/03/13 14:10:43;;;;;;;6.90;1.00;;;;;;;;;;4976936;28;20093;-63
2021/03/13 14:13:09;;;;;;;10.25;1.17;;;;;;;;;;4967080;28;20070;-65
2021/03/13 14:15:35;;;;;;;9.63;1.00;;;;;;;;;;4967211;28;20042;-66
2021/03/13 14:18:02;;;;;;;7.35;1.17;;;;;;;;;;4986922;28;20132;-66
2021/03/13 14:20:29;;;;;;;3.00;0.57;;;;;;;;;;4981976;28;20074;-63
2021/03/13 14:22:55;;;;;;;7.15;0.90;;;;;;;;;;4968372;28;20039;-68
2021/03/13 14:25:21;;;;;;;3.03;0.73;;;;;;;;;;4984270;28;20039;-64
2021/03/13 14:27:49;;;;;;;4.68;0.82;;;;;;;;;;4981459;28;20038;-67
2021/03/13 14:30:16;;;;;;;11.35;1.02;;;;;;;;;;4983808;28;20162;-64
2021/03/13 14:32:42;;;;;;;2.35;0.57;;;;;;;;;;4981258;28;20052;-65
2021/03/13 14:35:16;;;;;;;5.07;1.08;;;;;;;;;;5005789;28;20045;-64
2021/03/13 14:37:46;;;;;;;3.50;0.63;;;;;;;;;;4968455;28;20042;-64
2021/03/13 14:40:13;;;;;;;1.95;0.55;;;;;;;;;;4967934;28;20043;-64
2021/03/13 14:42:39;;;;;;;2.38;0.38;;;;;;;;;;4976102;28;20046;-61
2021/03/13 14:45:06;;;;;;;2.10;0.30;;;;;;;;;;5004692;28;20046;-60
2021/03/13 14:47:33;;;;;;;4.72;0.50;;;;;;;;;;4973433;28;20144;-61